Time;durP1;ratioP1;P1;durP2;ratioP2;P2;SDS_P1;SDS_P2;PMS_P1;PMS_P2;Temp;Humidity;BMP_temperature;BMP_pressure;BME280_temperature;BME280_humidity;BME280_pressure;Samples;Min_cycle;Max_cycle;Signal;HPM_P1;HPM_P2
2023/11/04 09:59:12;;;;;;;11.95;9.32;;;;;;;;;;2089714;28;24438;-63
2023/11/04 10:00:32;;;;;;;12.93;9.52;;;;;;;;;;2083377;28;20057;-64
2023/11/04 10:01:51;;;;;;;15.13;10.38;;;;;;;;;;2086228;28;20026;-63
2023/11/04 10:03:10;;;;;;;15.77;11.52;;;;;;;;;;2083256;28;20069;-63
2023/11/04 10:04:29;;;;;;;14.40;11.40;;;;;;;;;;2082717;28;20489;-63
2023/11/04 10:05:49;;;;;;;13.38;11.38;;;;;;;;;;2083624;28;20034;-62
2023/11/04 10:07:08;;;;;;;17.63;12.15;;;;;;;;;;2085530;28;20025;-63
2023/11/04 10:08:27;;;;;;;17.85;12.05;;;;;;;;;;2087154;28;20037;-63
2023/11/04 10:09:48;;;;;;;16.08;11.38;;;;;;;;;;2086602;28;20107;-62
2023/11/04 10:11:10;;;;;;;17.20;11.82;;;;;;;;;;2085327;28;20029;-62
2023/11/04 10:12:29;;;;;;;18.80;13.48;;;;;;;;;;2083301;28;20022;-63
2023/11/04 10:13:49;;;;;;;20.35;12.40;;;;;;;;;;2078830;28;20029;-62
2023/11/04 10:15:08;;;;;;;15.13;13.13;;;;;;;;;;2084707;28;20029;-63
2023/11/04 10:16:28;;;;;;;20.38;13.52;;;;;;;;;;2084271;28;20037;-62
2023/11/04 10:17:48;;;;;;;15.70;13.73;;;;;;;;;;2075882;28;20575;-63
2023/11/04 10:19:07;;;;;;;17.48;13.60;;;;;;;;;;2081621;28;20037;-63
2023/11/04 10:20:26;;;;;;;18.60;14.00;;;;;;;;;;2083183;28;20029;-64
2023/11/04 10:21:46;;;;;;;15.25;12.93;;;;;;;;;;2082003;28;20025;-62
2023/11/04 10:23:05;;;;;;;19.02;14.23;;;;;;;;;;2082078;28;20112;-62
2023/11/04 10:24:25;;;;;;;21.92;13.65;;;;;;;;;;2083192;28;20033;-62
2023/11/04 10:25:44;;;;;;;17.23;13.55;;;;;;;;;;2082817;28;21116;-62
2023/11/04 10:27:03;;;;;;;20.80;14.43;;;;;;;;;;2083345;28;20025;-63
2023/11/04 10:28:24;;;;;;;23.05;14.52;;;;;;;;;;2087327;28;20029;-62
2023/11/04 10:29:44;;;;;;;22.73;15.43;;;;;;;;;;2080690;28;20022;-62
2023/11/04 10:31:04;;;;;;;16.48;14.65;;;;;;;;;;2083265;28;20025;-63
2023/11/04 10:32:26;;;;;;;19.65;15.02;;;;;;;;;;2083954;28;20025;-62
2023/11/04 10:33:45;;;;;;;23.25;15.20;;;;;;;;;;2084577;28;20025;-61
2023/11/04 10:35:09;;;;;;;23.63;16.20;;;;;;;;;;2076391;28;20032;-63
2023/11/04 10:36:29;;;;;;;22.92;16.13;;;;;;;;;;2078314;28;20501;-64
2023/11/04 10:37:48;;;;;;;20.88;16.00;;;;;;;;;;2082119;28;20533;-62
2023/11/04 10:39:08;;;;;;;24.15;16.17;;;;;;;;;;2083184;28;20021;-62
2023/11/04 10:40:27;;;;;;;24.63;16.63;;;;;;;;;;2085725;28;20033;-63
2023/11/04 10:41:56;;;;;;;23.83;16.08;;;;;;;;;;2079525;28;20025;-63
2023/11/04 10:43:18;;;;;;;24.25;15.38;;;;;;;;;;2087218;28;20500;-62
2023/11/04 10:44:39;;;;;;;22.35;15.43;;;;;;;;;;2084956;28;20057;-63
2023/11/04 10:46:02;;;;;;;22.48;15.85;;;;;;;;;;2082824;28;20030;-62
2023/11/04 10:47:35;;;;;;;21.40;15.65;;;;;;;;;;2081455;28;20390;-62
2023/11/04 10:49:14;;;;;;;17.77;12.35;;;;;;;;;;2081102;28;20042;-64
2023/11/04 10:50:36;;;;;;;23.23;15.15;;;;;;;;;;2085741;28;20033;-62
2023/11/04 10:52:05;;;;;;;21.92;15.70;;;;;;;;;;2083212;28;20033;-62
2023/11/04 10:53:42;;;;;;;26.05;16.38;;;;;;;;;;2082008;28;20025;-62
2023/11/04 10:55:07;;;;;;;21.25;14.95;;;;;;;;;;2083154;28;20033;-62
2023/11/04 10:56:36;;;;;;;25.77;15.48;;;;;;;;;;2079976;28;20433;-62
2023/11/04 10:58:02;;;;;;;24.50;15.40;;;;;;;;;;2084361;28;20041;-63
2023/11/04 10:59:35;;;;;;;21.08;14.40;;;;;;;;;;2083291;28;20509;-62
2023/11/04 11:00:54;;;;;;;24.03;14.77;;;;;;;;;;2077182;28;20179;-63
2023/11/04 11:02:13;;;;;;;18.65;14.82;;;;;;;;;;2085832;28;20238;-63
2023/11/04 11:03:33;;;;;;;26.20;15.35;;;;;;;;;;2084705;28;20033;-64
2023/11/04 11:04:53;;;;;;;22.05;14.85;;;;;;;;;;2083228;28;20029;-62
2023/11/04 11:06:12;;;;;;;23.52;14.60;;;;;;;;;;2085230;28;20030;-64
2023/11/04 11:07:31;;;;;;;20.95;14.35;;;;;;;;;;2085940;28;20029;-63
2023/11/04 11:08:50;;;;;;;16.13;13.43;;;;;;;;;;2084670;28;20029;-63
2023/11/04 11:10:11;;;;;;;20.92;14.48;;;;;;;;;;2082503;28;20104;-63
2023/11/04 11:11:36;;;;;;;24.98;13.55;;;;;;;;;;2077638;28;20033;-63
2023/11/04 11:13:13;;;;;;;25.02;13.25;;;;;;;;;;2075063;28;20033;-62
2023/11/04 11:14:34;;;;;;;21.38;13.77;;;;;;;;;;2080288;28;20037;-62
2023/11/04 11:15:55;;;;;;;19.52;12.85;;;;;;;;;;2080604;28;20533;-62
2023/11/04 11:17:14;;;;;;;15.73;12.50;;;;;;;;;;2078955;28;20477;-63
2023/11/04 11:18:33;;;;;;;18.55;12.95;;;;;;;;;;2080101;28;20072;-63
2023/11/04 11:19:52;;;;;;;19.10;13.88;;;;;;;;;;2073073;28;20025;-63
2023/11/04 11:21:11;;;;;;;16.88;12.77;;;;;;;;;;2080515;28;20021;-63
2023/11/04 11:22:30;;;;;;;20.63;12.57;;;;;;;;;;2078094;28;20037;-63
2023/11/04 11:23:49;;;;;;;16.80;13.20;;;;;;;;;;2078534;28;20033;-63
2023/11/04 11:25:09;;;;;;;17.40;12.82;;;;;;;;;;2079228;28;20474;-63
2023/11/04 11:26:28;;;;;;;23.13;12.80;;;;;;;;;;2078752;28;20045;-63
2023/11/04 11:27:46;;;;;;;18.38;13.88;;;;;;;;;;2078738;28;20033;-63
2023/11/04 11:29:05;;;;;;;19.13;13.57;;;;;;;;;;2080044;28;20038;-63
2023/11/04 11:30:37;;;;;;;14.93;13.10;;;;;;;;;;2076902;28;20042;-64
2023/11/04 11:32:05;;;;;;;22.77;13.10;;;;;;;;;;2079710;28;20021;-62
2023/11/04 11:33:25;;;;;;;16.95;13.10;;;;;;;;;;2079537;28;20029;-63
2023/11/04 11:34:50;;;;;;;18.70;13.27;;;;;;;;;;2080598;28;20452;-63
2023/11/04 11:36:13;;;;;;;15.57;12.82;;;;;;;;;;2078380;28;20038;-62
2023/11/04 11:37:32;;;;;;;22.40;13.63;;;;;;;;;;2078254;28;20029;-63
2023/11/04 11:38:51;;;;;;;22.67;13.45;;;;;;;;;;2080787;28;20104;-64
2023/11/04 11:40:12;;;;;;;17.65;13.75;;;;;;;;;;2079611;28;20096;-63
2023/11/04 11:41:37;;;;;;;23.20;13.77;;;;;;;;;;2078363;28;20026;-62
2023/11/04 11:42:56;;;;;;;18.55;13.05;;;;;;;;;;2079421;28;20049;-63
2023/11/04 11:44:15;;;;;;;22.67;14.32;;;;;;;;;;2080955;28;20030;-62
2023/11/04 11:45:36;;;;;;;20.10;14.70;;;;;;;;;;2080483;28;20026;-63
2023/11/04 11:46:55;;;;;;;22.60;14.38;;;;;;;;;;2078361;28;20026;-62
2023/11/04 11:48:15;;;;;;;20.88;14.75;;;;;;;;;;2075511;28;20478;-62
2023/11/04 11:49:34;;;;;;;20.10;14.65;;;;;;;;;;2078841;28;20069;-62
2023/11/04 11:50:53;;;;;;;20.08;14.50;;;;;;;;;;2071711;28;21797;-63
2023/11/04 11:52:15;;;;;;;18.67;14.45;;;;;;;;;;2078504;28;20101;-62
2023/11/04 11:53:34;;;;;;;29.65;15.18;;;;;;;;;;2075608;28;20030;-62
2023/11/04 11:54:53;;;;;;;17.08;14.55;;;;;;;;;;2079570;28;20029;-62
2023/11/04 11:56:15;;;;;;;24.92;15.73;;;;;;;;;;2078742;28;20483;-63
2023/11/04 11:57:34;;;;;;;23.83;16.13;;;;;;;;;;2081032;28;20486;-63
2023/11/04 11:58:53;;;;;;;22.92;15.57;;;;;;;;;;2078861;28;20056;-63
2023/11/04 12:00:13;;;;;;;19.88;15.35;;;;;;;;;;2078858;28;20021;-63
2023/11/04 12:01:33;;;;;;;19.98;16.08;;;;;;;;;;2077124;28;20038;-62
2023/11/04 12:02:54;;;;;;;21.23;15.40;;;;;;;;;;2079223;28;20034;-63
2023/11/04 12:04:13;;;;;;;18.48;15.88;;;;;;;;;;2079855;28;20474;-63
2023/11/04 12:05:32;;;;;;;21.20;14.88;;;;;;;;;;2078872;28;20026;-64
2023/11/04 12:06:54;;;;;;;22.48;15.73;;;;;;;;;;2079340;28;20394;-62
2023/11/04 12:08:13;;;;;;;20.95;15.95;;;;;;;;;;2079563;28;20033;-62
2023/11/04 12:09:33;;;;;;;21.45;15.77;;;;;;;;;;2078944;28;20030;-62
2023/11/04 12:10:52;;;;;;;21.80;15.80;;;;;;;;;;2074831;28;20330;-62
2023/11/04 12:12:14;;;;;;;27.10;16.50;;;;;;;;;;2079280;28;20030;-62
2023/11/04 12:13:33;;;;;;;23.02;15.32;;;;;;;;;;2076367;28;20493;-62
2023/11/04 12:15:01;;;;;;;22.00;15.85;;;;;;;;;;2077662;28;20061;-63
2023/11/04 12:16:23;;;;;;;27.83;16.20;;;;;;;;;;2077486;28;20021;-62
2023/11/04 12:17:42;;;;;;;25.40;15.98;;;;;;;;;;2076221;28;20029;-63
2023/11/04 12:19:01;;;;;;;22.75;16.30;;;;;;;;;;2079509;28;20029;-62
2023/11/04 12:20:26;;;;;;;25.80;16.73;;;;;;;;;;2079586;28;20021;-62
2023/11/04 12:21:45;;;;;;;24.67;16.27;;;;;;;;;;2078328;28;20026;-62
2023/11/04 12:23:05;;;;;;;22.75;16.33;;;;;;;;;;2078408;28;20022;-62
2023/11/04 12:24:24;;;;;;;26.15;16.38;;;;;;;;;;2075810;28;20030;-62
2023/11/04 12:25:43;;;;;;;22.40;16.67;;;;;;;;;;2077942;28;20490;-62
2023/11/04 12:27:03;;;;;;;21.85;16.65;;;;;;;;;;2078827;28;20382;-63
2023/11/04 12:28:22;;;;;;;26.95;15.63;;;;;;;;;;2077591;28;20378;-62
2023/11/04 12:29:42;;;;;;;23.85;16.25;;;;;;;;;;2079963;28;20033;-63
2023/11/04 12:31:01;;;;;;;24.70;15.73;;;;;;;;;;2080175;28;20025;-63
2023/11/04 12:32:21;;;;;;;22.15;15.25;;;;;;;;;;2079796;28;20064;-63
2023/11/04 12:33:44;;;;;;;26.73;16.38;;;;;;;;;;2076765;28;20022;-63
2023/11/04 12:35:02;;;;;;;23.95;15.13;;;;;;;;;;2077986;28;20426;-63
2023/11/04 12:36:22;;;;;;;19.92;15.32;;;;;;;;;;2076506;28;20022;-63
2023/11/04 12:37:41;;;;;;;21.42;15.90;;;;;;;;;;2072641;28;20034;-63
2023/11/04 12:39:01;;;;;;;19.08;15.13;;;;;;;;;;2075303;28;20041;-62
2023/11/04 12:40:20;;;;;;;25.88;15.88;;;;;;;;;;2079863;28;20112;-62
2023/11/04 12:41:39;;;;;;;26.67;16.00;;;;;;;;;;2080445;28;20030;-63
2023/11/04 12:43:01;;;;;;;26.38;17.48;;;;;;;;;;2079071;28;20048;-62
2023/11/04 12:44:22;;;;;;;27.20;16.60;;;;;;;;;;2078874;28;20034;-62
2023/11/04 12:45:46;;;;;;;24.77;15.93;;;;;;;;;;2076028;28;20030;-62
2023/11/04 12:47:07;;;;;;;25.35;15.60;;;;;;;;;;2078866;28;20393;-63
2023/11/04 12:48:26;;;;;;;22.65;16.42;;;;;;;;;;2075802;28;20065;-63
2023/11/04 12:49:45;;;;;;;22.58;16.10;;;;;;;;;;2077071;28;20022;-62
2023/11/04 12:51:04;;;;;;;21.48;16.17;;;;;;;;;;2076466;28;20060;-63
2023/11/04 12:52:25;;;;;;;24.73;16.58;;;;;;;;;;2078765;28;20033;-64
2023/11/04 12:53:44;;;;;;;21.50;15.55;;;;;;;;;;2080865;28;20203;-62
2023/11/04 12:55:03;;;;;;;27.10;15.52;;;;;;;;;;2079537;28;20034;-63
2023/11/04 12:56:23;;;;;;;28.65;16.40;;;;;;;;;;2079456;28;20014;-63
2023/11/04 12:57:42;;;;;;;20.23;15.73;;;;;;;;;;2080637;28;20030;-63
2023/11/04 12:59:03;;;;;;;22.58;14.93;;;;;;;;;;2079696;28;20046;-63
2023/11/04 13:00:21;;;;;;;26.90;16.67;;;;;;;;;;2078004;28;20079;-62
2023/11/04 13:01:40;;;;;;;24.85;15.38;;;;;;;;;;2077852;28;20025;-62
2023/11/04 13:02:59;;;;;;;20.48;16.70;;;;;;;;;;2076903;28;20112;-62
2023/11/04 13:04:19;;;;;;;24.35;16.33;;;;;;;;;;2079073;28;20545;-62
2023/11/04 13:05:37;;;;;;;21.95;15.93;;;;;;;;;;2080532;28;20698;-63
2023/11/04 13:06:56;;;;;;;21.67;16.80;;;;;;;;;;2074111;28;20038;-62
2023/11/04 13:08:15;;;;;;;21.95;16.15;;;;;;;;;;2077516;28;20078;-62
2023/11/04 13:09:34;;;;;;;21.38;15.13;;;;;;;;;;2078537;28;20037;-62
2023/11/04 13:10:55;;;;;;;22.15;16.55;;;;;;;;;;2075428;28;20026;-62
2023/11/04 13:12:14;;;;;;;19.98;15.63;;;;;;;;;;2077455;28;20100;-62
2023/11/04 13:13:33;;;;;;;22.80;15.98;;;;;;;;;;2077303;28;20021;-62
2023/11/04 13:14:52;;;;;;;24.27;16.63;;;;;;;;;;2075016;28;20069;-62
2023/11/04 13:16:11;;;;;;;20.42;15.75;;;;;;;;;;2078255;28;20497;-64
2023/11/04 13:17:29;;;;;;;19.20;16.25;;;;;;;;;;2076706;28;20113;-62
2023/11/04 13:18:48;;;;;;;20.75;16.50;;;;;;;;;;2077736;28;20489;-61
2023/11/04 13:20:08;;;;;;;26.33;16.58;;;;;;;;;;2077256;28;20029;-60
2023/11/04 13:21:27;;;;;;;20.25;15.85;;;;;;;;;;2078912;28;20378;-60
2023/11/04 13:22:46;;;;;;;20.52;15.73;;;;;;;;;;2077472;28;20049;-61
2023/11/04 13:24:05;;;;;;;20.98;15.23;;;;;;;;;;2079044;28;20026;-61
2023/11/04 13:25:24;;;;;;;20.65;16.02;;;;;;;;;;2078312;28;20030;-62
2023/11/04 13:26:43;;;;;;;25.13;15.45;;;;;;;;;;2078966;28;20038;-61
2023/11/04 13:28:02;;;;;;;20.98;15.80;;;;;;;;;;2080063;28;20033;-62
2023/11/04 13:29:21;;;;;;;20.98;15.63;;;;;;;;;;2077884;28;20025;-62
2023/11/04 13:30:40;;;;;;;21.25;15.13;;;;;;;;;;2075200;28;20045;-62
2023/11/04 13:32:01;;;;;;;22.05;15.15;;;;;;;;;;2073031;28;20034;-62
2023/11/04 13:33:20;;;;;;;22.48;15.60;;;;;;;;;;2079080;28;20029;-62
2023/11/04 13:34:40;;;;;;;21.70;14.45;;;;;;;;;;2079037;28;20033;-62
2023/11/04 13:36:00;;;;;;;21.48;15.98;;;;;;;;;;2077690;28;20041;-62
2023/11/04 13:37:19;;;;;;;19.63;14.07;;;;;;;;;;2077949;28;20037;-64
2023/11/04 13:38:38;;;;;;;23.80;15.35;;;;;;;;;;2076724;28;20037;-62
2023/11/04 13:39:58;;;;;;;24.63;15.32;;;;;;;;;;2075709;28;20018;-62
2023/11/04 13:41:17;;;;;;;24.20;15.63;;;;;;;;;;2073733;28;20710;-62
2023/11/04 13:42:37;;;;;;;21.40;14.82;;;;;;;;;;2078281;28;20092;-62
2023/11/04 13:43:56;;;;;;;19.80;14.15;;;;;;;;;;2075447;28;20080;-63
2023/11/04 13:45:15;;;;;;;21.00;14.50;;;;;;;;;;2071985;28;20045;-61
2023/11/04 13:46:34;;;;;;;20.13;14.57;;;;;;;;;;2075452;28;20026;-61
2023/11/04 13:47:52;;;;;;;23.13;14.57;;;;;;;;;;2077246;28;20694;-61
2023/11/04 13:49:12;;;;;;;23.63;14.93;;;;;;;;;;2074507;28;20123;-62
2023/11/04 13:50:31;;;;;;;21.35;14.52;;;;;;;;;;2074438;28;20037;-62
2023/11/04 13:51:50;;;;;;;20.92;14.50;;;;;;;;;;2077944;28;20547;-62
2023/11/04 13:53:09;;;;;;;18.73;14.38;;;;;;;;;;2079208;28;20104;-62
2023/11/04 13:54:28;;;;;;;15.43;13.80;;;;;;;;;;2076404;28;20045;-62
2023/11/04 13:55:47;;;;;;;19.60;14.50;;;;;;;;;;2078461;28;20030;-63
2023/11/04 13:57:06;;;;;;;15.70;13.52;;;;;;;;;;2077322;28;20502;-62
2023/11/04 13:58:25;;;;;;;20.08;14.02;;;;;;;;;;2078697;28;20041;-63
2023/11/04 13:59:44;;;;;;;20.55;14.40;;;;;;;;;;2074235;28;20490;-62
2023/11/04 14:01:03;;;;;;;22.33;13.52;;;;;;;;;;2078773;28;20041;-63
2023/11/04 14:02:26;;;;;;;16.30;13.43;;;;;;;;;;2078852;28;20049;-63
2023/11/04 14:03:45;;;;;;;19.13;14.02;;;;;;;;;;2078400;28;20061;-60
2023/11/04 14:05:04;;;;;;;21.17;13.48;;;;;;;;;;2077438;28;20018;-63
2023/11/04 14:06:24;;;;;;;20.60;13.77;;;;;;;;;;2078588;28;20030;-63
2023/11/04 14:07:43;;;;;;;17.38;12.65;;;;;;;;;;2077060;28;20490;-63
2023/11/04 14:09:02;;;;;;;23.60;13.70;;;;;;;;;;2077547;28;20038;-64
2023/11/04 14:10:21;;;;;;;21.05;13.93;;;;;;;;;;2079263;28;20140;-63
2023/11/04 14:11:40;;;;;;;17.98;13.32;;;;;;;;;;2077613;28;20041;-62
2023/11/04 14:12:59;;;;;;;15.10;13.23;;;;;;;;;;2077851;28;20025;-60
2023/11/04 14:14:18;;;;;;;19.45;13.90;;;;;;;;;;2078996;28;20069;-61
2023/11/04 14:15:37;;;;;;;18.55;13.32;;;;;;;;;;2079409;28;20030;-61
2023/11/04 14:16:56;;;;;;;17.25;13.45;;;;;;;;;;2080255;28;20105;-61
2023/11/04 14:18:15;;;;;;;16.15;12.32;;;;;;;;;;2074944;28;20037;-61
2023/11/04 14:19:34;;;;;;;19.17;13.57;;;;;;;;;;2077246;28;20033;-62
2023/11/04 14:20:53;;;;;;;15.85;12.43;;;;;;;;;;2075692;28;20025;-61
2023/11/04 14:22:13;;;;;;;20.73;13.60;;;;;;;;;;2078621;28;20030;-61
2023/11/04 14:23:32;;;;;;;15.88;13.30;;;;;;;;;;2077910;28;20033;-60
2023/11/04 14:24:53;;;;;;;15.52;13.05;;;;;;;;;;2078792;28;20022;-61
2023/11/04 14:26:12;;;;;;;18.08;12.18;;;;;;;;;;2086335;28;20021;-61
2023/11/04 14:27:31;;;;;;;14.73;12.60;;;;;;;;;;2074693;28;20675;-60
2023/11/04 14:28:50;;;;;;;14.20;12.50;;;;;;;;;;2075595;28;20499;-61
2023/11/04 14:30:11;;;;;;;15.70;12.25;;;;;;;;;;2074768;28;20033;-61
2023/11/04 14:31:30;;;;;;;15.60;12.20;;;;;;;;;;2073927;28;20029;-61
2023/11/04 14:32:48;;;;;;;16.65;12.13;;;;;;;;;;2069187;28;20120;-61
2023/11/04 14:34:07;;;;;;;16.63;13.00;;;;;;;;;;2076861;28;20029;-61
2023/11/04 14:35:26;;;;;;;16.67;12.73;;;;;;;;;;2078666;28;20041;-60
2023/11/04 14:36:46;;;;;;;15.88;12.40;;;;;;;;;;2078775;28;20029;-61
2023/11/04 14:38:05;;;;;;;14.00;12.40;;;;;;;;;;2078230;28;20104;-61
2023/11/04 14:39:24;;;;;;;16.65;13.05;;;;;;;;;;2079993;28;20033;-60
2023/11/04 14:40:43;;;;;;;17.20;13.07;;;;;;;;;;2077797;28;20073;-62
2023/11/04 14:42:02;;;;;;;17.58;12.80;;;;;;;;;;2077529;28;20051;-60
2023/11/04 14:43:21;;;;;;;16.70;12.40;;;;;;;;;;2079357;28;20025;-61
2023/11/04 14:44:40;;;;;;;14.77;13.05;;;;;;;;;;2075679;28;20481;-61
2023/11/04 14:45:59;;;;;;;17.55;13.40;;;;;;;;;;2077660;28;20115;-60
2023/11/04 14:47:19;;;;;;;17.30;12.68;;;;;;;;;;2076717;28;20022;-60
2023/11/04 14:48:38;;;;;;;17.50;13.00;;;;;;;;;;2080122;28;20065;-60
2023/11/04 14:50:00;;;;;;;15.68;13.40;;;;;;;;;;2078686;28;20045;-61
2023/11/04 14:51:22;;;;;;;19.48;13.27;;;;;;;;;;2078976;28;20029;-60
2023/11/04 14:52:41;;;;;;;16.08;13.35;;;;;;;;;;2074161;28;20029;-61
2023/11/04 14:54:00;;;;;;;16.50;14.40;;;;;;;;;;2078261;28;20033;-61
2023/11/04 14:55:20;;;;;;;18.63;13.98;;;;;;;;;;2078026;28;20034;-61
2023/11/04 14:56:40;;;;;;;14.48;13.00;;;;;;;;;;2078006;28;20037;-61
2023/11/04 14:57:59;;;;;;;18.75;14.32;;;;;;;;;;2078434;28;20038;-61
2023/11/04 14:59:18;;;;;;;19.67;14.30;;;;;;;;;;2077806;28;20037;-62
2023/11/04 15:00:36;;;;;;;21.35;13.90;;;;;;;;;;2076717;28;20116;-61
2023/11/04 15:01:55;;;;;;;22.45;13.75;;;;;;;;;;2077184;28;20022;-61
2023/11/04 15:03:15;;;;;;;21.75;14.13;;;;;;;;;;2077929;28;20018;-61
2023/11/04 15:04:34;;;;;;;21.40;14.90;;;;;;;;;;2079152;28;20026;-61
2023/11/04 15:05:53;;;;;;;21.27;15.02;;;;;;;;;;2079121;28;20033;-61
2023/11/04 15:07:12;;;;;;;21.80;14.70;;;;;;;;;;2078588;28;20100;-61
2023/11/04 15:08:31;;;;;;;20.55;14.57;;;;;;;;;;2074766;28;20124;-61
2023/11/04 15:09:50;;;;;;;23.40;15.82;;;;;;;;;;2071966;28;20486;-61
2023/11/04 15:11:09;;;;;;;25.00;15.23;;;;;;;;;;2077075;28;20152;-61
2023/11/04 15:12:28;;;;;;;19.85;15.27;;;;;;;;;;2078691;28;20034;-62
2023/11/04 15:13:47;;;;;;;16.65;14.85;;;;;;;;;;2078477;28;20022;-61
2023/11/04 15:15:06;;;;;;;19.20;15.07;;;;;;;;;;2077226;28;20060;-61
2023/11/04 15:16:26;;;;;;;23.88;15.20;;;;;;;;;;2085464;28;20104;-61
2023/11/04 15:17:44;;;;;;;23.38;15.10;;;;;;;;;;2080829;28;20030;-61
2023/11/04 15:19:04;;;;;;;18.83;15.25;;;;;;;;;;2077164;28;20029;-61
2023/11/04 15:20:23;;;;;;;24.35;15.40;;;;;;;;;;2075816;28;20022;-61
2023/11/04 15:21:42;;;;;;;20.10;15.25;;;;;;;;;;2078039;28;20026;-61
2023/11/04 15:23:02;;;;;;;23.33;15.60;;;;;;;;;;2077236;28;20022;-61
2023/11/04 15:24:22;;;;;;;20.92;15.10;;;;;;;;;;2078266;28;20437;-61
2023/11/04 15:25:41;;;;;;;20.58;15.35;;;;;;;;;;2073921;28;20022;-62
2023/11/04 15:27:00;;;;;;;23.98;16.95;;;;;;;;;;2078643;28;20494;-62
2023/11/04 15:28:19;;;;;;;25.95;16.27;;;;;;;;;;2075857;28;20410;-62
2023/11/04 15:29:38;;;;;;;23.50;16.67;;;;;;;;;;2077450;28;20498;-61
2023/11/04 15:30:58;;;;;;;24.67;15.52;;;;;;;;;;2077155;28;20128;-62
2023/11/04 15:32:17;;;;;;;24.67;16.40;;;;;;;;;;2078499;28;20151;-62
2023/11/04 15:33:37;;;;;;;22.40;16.77;;;;;;;;;;2078295;28;20041;-61
2023/11/04 15:34:56;;;;;;;24.23;17.98;;;;;;;;;;2077790;28;20030;-62
2023/11/04 15:36:15;;;;;;;25.08;18.52;;;;;;;;;;2076807;28;20494;-63
2023/11/04 15:37:34;;;;;;;23.98;18.23;;;;;;;;;;2077078;28;20501;-62
2023/11/04 15:38:53;;;;;;;26.17;18.58;;;;;;;;;;2075429;28;20026;-61
2023/11/04 15:40:12;;;;;;;31.00;19.65;;;;;;;;;;2079090;28;20026;-60
2023/11/04 15:41:35;;;;;;;31.52;19.30;;;;;;;;;;2076334;28;20021;-61
2023/11/04 15:42:55;;;;;;;22.70;17.55;;;;;;;;;;2076656;28;20774;-61
2023/11/04 15:44:15;;;;;;;24.23;17.00;;;;;;;;;;2077048;28;20644;-61
2023/11/04 15:45:33;;;;;;;23.40;17.83;;;;;;;;;;2075032;28;20037;-61
2023/11/04 15:46:52;;;;;;;25.00;17.23;;;;;;;;;;2073986;28;20026;-62
2023/11/04 15:48:11;;;;;;;23.98;16.52;;;;;;;;;;2077148;28;20056;-61
2023/11/04 15:49:30;;;;;;;25.38;17.00;;;;;;;;;;2079346;28;21427;-63
2023/11/04 15:50:54;;;;;;;23.17;16.15;;;;;;;;;;2079441;28;20029;-61
2023/11/04 15:52:14;;;;;;;;;;;;;;;;;;2079474;28;20108;-61
2023/11/04 15:53:33;;;;;;;22.88;16.77;;;;;;;;;;2077556;28;19905;-62
2023/11/04 15:54:52;;;;;;;27.60;16.63;;;;;;;;;;2078651;28;20025;-62
2023/11/04 15:56:11;;;;;;;26.67;17.42;;;;;;;;;;2076037;28;20502;-62
2023/11/04 15:57:29;;;;;;;28.95;18.23;;;;;;;;;;2078553;28;20026;-61
2023/11/04 15:58:48;;;;;;;29.50;19.85;;;;;;;;;;2078144;28;20050;-61
2023/11/04 16:00:09;;;;;;;22.05;16.95;;;;;;;;;;2078877;28;20029;-61
2023/11/04 16:01:28;;;;;;;26.73;16.10;;;;;;;;;;2076969;28;20374;-62
2023/11/04 16:02:47;;;;;;;18.60;15.40;;;;;;;;;;2073498;28;20490;-61
2023/11/04 16:04:06;;;;;;;21.42;14.93;;;;;;;;;;2077838;28;20026;-62
2023/11/04 16:05:25;;;;;;;22.00;14.55;;;;;;;;;;2076139;28;20041;-62
2023/11/04 16:06:44;;;;;;;22.73;15.27;;;;;;;;;;2077858;28;20494;-62
2023/11/04 16:08:03;;;;;;;20.35;15.00;;;;;;;;;;2072889;28;20104;-61
2023/11/04 16:09:22;;;;;;;21.25;15.57;;;;;;;;;;2079174;28;20030;-62
2023/11/04 16:10:41;;;;;;;20.65;15.48;;;;;;;;;;2077167;28;20033;-61
2023/11/04 16:12:00;;;;;;;23.77;15.05;;;;;;;;;;2078084;28;20438;-62
2023/11/04 16:13:19;;;;;;;23.13;15.48;;;;;;;;;;2078863;28;20037;-61
2023/11/04 16:14:40;;;;;;;20.90;16.45;;;;;;;;;;2078250;28;21386;-61
2023/11/04 16:15:59;;;;;;;24.33;16.77;;;;;;;;;;2077271;28;20155;-62
2023/11/04 16:17:18;;;;;;;23.40;15.20;;;;;;;;;;2078553;28;20492;-61
2023/11/04 16:18:37;;;;;;;7.10;6.00;;;;;;;;;;2078631;28;20037;-61
2023/11/04 16:19:56;;;;;;;7.13;5.53;;;;;;;;;;2077724;28;20029;-61
2023/11/04 16:21:15;;;;;;;4.30;3.95;;;;;;;;;;2078076;28;20018;-62
2023/11/04 16:22:34;;;;;;;3.00;2.70;;;;;;;;;;2077885;28;20468;-63
2023/11/04 16:23:53;;;;;;;3.63;2.13;;;;;;;;;;2078750;28;20104;-61
2023/11/04 16:25:12;;;;;;;1.73;1.63;;;;;;;;;;2078390;28;20417;-61
2023/11/04 16:26:32;;;;;;;2.17;2.00;;;;;;;;;;2076876;28;20474;-62
2023/11/04 16:27:51;;;;;;;1.45;1.35;;;;;;;;;;2078487;28;20022;-62
2023/11/04 16:29:10;;;;;;;2.25;1.10;;;;;;;;;;2078123;28;20030;-62
2023/11/04 16:30:30;;;;;;;0.80;0.80;;;;;;;;;;2076885;28;20037;-63
2023/11/04 16:31:49;;;;;;;2.70;0.85;;;;;;;;;;2078020;28;20037;-61
2023/11/04 16:33:08;;;;;;;0.95;0.70;;;;;;;;;;2077974;28;20025;-63
2023/11/04 16:34:27;;;;;;;0.52;0.52;;;;;;;;;;2079985;28;20037;-61
2023/11/04 16:35:47;;;;;;;0.50;0.50;;;;;;;;;;2076334;28;20029;-65
2023/11/04 16:37:08;;;;;;;1.25;0.50;;;;;;;;;;2077547;28;20029;-64
2023/11/04 16:38:27;;;;;;;0.40;0.40;;;;;;;;;;2076363;28;20064;-61
2023/11/04 16:39:46;;;;;;;0.20;0.20;;;;;;;;;;2079651;28;20022;-61
2023/11/04 16:41:05;;;;;;;0.20;0.20;;;;;;;;;;2077617;28;20022;-61
2023/11/04 16:42:24;;;;;;;0.20;0.20;;;;;;;;;;2078448;28;20390;-61
2023/11/04 16:43:43;;;;;;;0.50;0.20;;;;;;;;;;2078455;28;20025;-61
2023/11/04 16:45:03;;;;;;;0.25;0.20;;;;;;;;;;2079635;28;20021;-61
2023/11/04 16:46:22;;;;;;;0.30;0.30;;;;;;;;;;2077065;28;20025;-61
2023/11/04 16:47:41;;;;;;;0.43;0.43;;;;;;;;;;2073512;28;20485;-61
2023/11/04 16:49:00;;;;;;;0.47;0.43;;;;;;;;;;2077985;28;20493;-62
2023/11/04 16:50:19;;;;;;;0.17;0.17;;;;;;;;;;2078104;28;20033;-62
2023/11/04 16:51:39;;;;;;;0.13;0.10;;;;;;;;;;2076853;28;20030;-63
2023/11/04 16:52:59;;;;;;;0.40;0.40;;;;;;;;;;2078067;28;20030;-62
2023/11/04 16:54:18;;;;;;;0.73;0.52;;;;;;;;;;2079027;28;20061;-61
2023/11/04 16:55:37;;;;;;;0.52;0.38;;;;;;;;;;2075770;28;20025;-61
2023/11/04 16:56:56;;;;;;;1.38;0.30;;;;;;;;;;2078125;28;20116;-61
2023/11/04 16:58:15;;;;;;;0.25;0.25;;;;;;;;;;2078384;28;20037;-62
2023/11/04 16:59:34;;;;;;;0.30;0.20;;;;;;;;;;2078553;28;20478;-62
2023/11/04 17:00:55;;;;;;;1.00;0.28;;;;;;;;;;2079805;28;20030;-61
2023/11/04 17:02:13;;;;;;;0.20;0.15;;;;;;;;;;2077666;28;20108;-61
2023/11/04 17:03:32;;;;;;;0.20;0.20;;;;;;;;;;2078783;28;20104;-61
2023/11/04 17:04:52;;;;;;;0.17;0.17;;;;;;;;;;2077534;28;20030;-62
2023/11/04 17:06:11;;;;;;;0.98;0.10;;;;;;;;;;2071888;28;20029;-62
2023/11/04 17:07:29;;;;;;;0.17;0.17;;;;;;;;;;2078574;28;20480;-61
2023/11/04 17:08:48;;;;;;;0.50;0.50;;;;;;;;;;2078174;28;20123;-61
2023/11/04 17:10:07;;;;;;;0.20;0.20;;;;;;;;;;2079182;28;20033;-61
2023/11/04 17:11:28;;;;;;;1.55;0.22;;;;;;;;;;2078680;28;20037;-61
2023/11/04 17:12:46;;;;;;;0.10;0.10;;;;;;;;;;2079450;28;20494;-61
2023/11/04 17:14:05;;;;;;;0.20;0.20;;;;;;;;;;2078885;28;20100;-63
2023/11/04 17:15:24;;;;;;;0.10;0.10;;;;;;;;;;2078003;28;20108;-61
2023/11/04 17:16:43;;;;;;;0.20;0.20;;;;;;;;;;2075940;28;20394;-61
2023/11/04 17:18:02;;;;;;;0.20;0.20;;;;;;;;;;2067394;28;20104;-63
2023/11/04 17:19:21;;;;;;;0.80;0.20;;;;;;;;;;2078599;28;21013;-61
2023/11/04 17:20:40;;;;;;;0.30;0.30;;;;;;;;;;2077031;28;20057;-61
2023/11/04 17:22:00;;;;;;;0.30;0.30;;;;;;;;;;2077384;28;20022;-61
2023/11/04 17:23:19;;;;;;;0.20;0.20;;;;;;;;;;2078587;28;20057;-62
2023/11/04 17:24:38;;;;;;;0.20;0.20;;;;;;;;;;2073690;28;20061;-61
2023/11/04 17:25:56;;;;;;;0.20;0.20;;;;;;;;;;2075835;28;20037;-61
2023/11/04 17:27:16;;;;;;;0.10;0.10;;;;;;;;;;2074069;28;20018;-61
2023/11/04 17:28:35;;;;;;;0.40;0.30;;;;;;;;;;2075993;28;20478;-61
2023/11/04 17:29:54;;;;;;;0.30;0.25;;;;;;;;;;2075286;28;20025;-61
2023/11/04 17:31:13;;;;;;;0.20;0.20;;;;;;;;;;2077395;28;20117;-61
2023/11/04 17:32:32;;;;;;;0.25;0.20;;;;;;;;;;2077806;28;20021;-61
2023/11/04 17:33:51;;;;;;;0.68;0.20;;;;;;;;;;2073558;28;20140;-62
2023/11/04 17:35:10;;;;;;;0.10;0.10;;;;;;;;;;2076948;28;20104;-61
2023/11/04 17:36:29;;;;;;;1.45;0.20;;;;;;;;;;2075434;28;20038;-63
2023/11/04 17:37:50;;;;;;;0.10;0.10;;;;;;;;;;2078291;28;20037;-61
2023/11/04 17:39:09;;;;;;;1.05;0.20;;;;;;;;;;2079901;28;20033;-62
2023/11/04 17:40:28;;;;;;;0.50;0.30;;;;;;;;;;2077471;28;20029;-62
2023/11/04 17:41:47;;;;;;;0.25;0.20;;;;;;;;;;2078270;28;20065;-62
2023/11/04 17:43:06;;;;;;;0.25;0.25;;;;;;;;;;2079632;28;20997;-62
2023/11/04 17:44:25;;;;;;;1.10;0.30;;;;;;;;;;2077936;28;20386;-62
2023/11/04 17:45:44;;;;;;;0.93;0.20;;;;;;;;;;2074398;28;20100;-61
2023/11/04 17:47:03;;;;;;;0.98;0.30;;;;;;;;;;2077793;28;20021;-62